This demonstration page uses our WeatherBlox Daily Observations layout. Learn more.

41.86663, -103.66717

Hourly Observations for May 14, 2019

Temp ( °F °C ) Dew Point ( °F °C ) Humidity (%) Winds ( mph kmh ) Pressure ( in mb ) Visibility ( mi km ) Precip ( " mm )
12:53 am 00:53 Clear 47 8.3 44 6.7 90 90 NW 6 9 29.8 1009 10 16.09344 0 0
1:53 am 01:53 Clear 45 7.2 42 5.6 90 90 Calm 29.8 1009 10 16.09344 0 0
2:53 am 02:53 Clear 44 6.7 41 5 89 89 NNE 5 7 29.83 1010 10 16.09344 0 0
3:53 am 03:53 Clear 43 6.1 41 5 93 93 WNW 5 7 29.83 1010 10 16.09344 0 0
4:53 am 04:53 Clear 43 6.1 40 4.4 89 89 undefined N/A 29.85 1011 10 16.09344 0 0
5:53 am 05:53 Sunny 42 5.6 39 3.9 89 89 undefined N/A 29.85 1011 10 16.09344 0 0
6:53 am 06:53 Sunny 48 8.9 43 6.1 83 83 NNW 3 6 29.88 1012 10 16.09344 0 0
7:53 am 07:53 Sunny 55 12.8 46 7.8 72 72 NW 7 11 29.88 1012 10 16.09344 0 0
8:53 am 08:53 Sunny 62 16.7 47 8.3 58 58 NW 9 15 29.88 1012 10 16.09344 0 0
9:53 am 09:53 Sunny 69 20.6 47 8.3 45 45 W 5 7 29.85 1011 10 16.09344 0 0
10:53 am 10:53 Sunny 74 23.3 47 8.3 38 38 W 6 9 29.88 1012 10 16.09344 0 0
11:53 am 11:53 Sunny 78 25.6 46 7.8 32 32 Calm 29.85 1011 10 16.09344 0 0
12:53 pm 12:53 Sunny 80 26.7 50 10 35 35 Calm 29.83 1010 10 16.09344 0 0
1:53 pm 13:53 Sunny 82 27.8 51 10.6 34 34 NW 8 13 29.83 1010 10 16.09344 0 0
2:53 pm 14:53 Sunny 84 28.9 50 10 31 31 WSW 10 17 29.8 1009 10 16.09344 0 0
3:53 pm 15:53 Sunny 80 26.7 46 7.8 30 30 WNW 10 17 29.8 1009 10 16.09344 0 0
4:53 pm 16:53 Sunny 80 26.7 46 7.8 30 30 W 10 17 29.8 1009 10 16.09344 0 0
5:53 pm 17:53 Sunny 77 25 47 8.3 35 35 W 7 11 29.8 1009 10 16.09344 0 0
6:53 pm 18:53 Sunny 74 23.3 41 5 31 31 NW 16 26 29.83 1010 10 16.09344 0 0
7:53 pm 19:53 Sunny 68 20 45 7.2 44 44 WSW 8 13 29.83 1010 10 16.09344 0 0
8:53 pm 20:53 Clear 70 21.1 42 5.6 37 37 WSW 12 19 29.83 1010 10 16.09344 0 0
9:53 pm 21:53 Clear 65 18.3 43 6.1 45 45 NNW 7 11 29.85 1011 10 16.09344 0 0
10:53 pm 22:53 Clear 60 15.6 45 7.2 58 58 NW 7 11 29.88 1012 10 16.09344 0 0
11:53 pm 23:53 Clear 55 12.8 45 7.2 69 69 NNE 7 11 29.85 1011 10 16.09344 0 0

Powered by AerisWeather